Latest Weather Observations for Esperance

IDW60801

Issued at 6:02 am WST Saturday 28 May 2016 (issued every 30 minutes, with the page automatically refreshed every 10 minutes)

About weather observations | Map of weather stations | Latest weather observations for WA | Other Formats
Station Details ID: 009789 Name: ESPERANCE Lat: -33.83 Lon: 121.89 Height: 25.0 m
Data from the previous 72 hours. | See also: Recent months at Esperance
Date/Time
WST
Temp
°C
App
Temp
°C
Dew
Point
Rel
Hum
%
Delta-T
°C
Wind Press
QNH
hPa
Press
MSL
hPa
Rain
since 9 am
mm
Dir
 
Spd
km/h
Gust
km/h
Spd
kts
Gust
kts
28/06:00am 9.1 4.1 4.6 73 2.0 N 20 28 11 15 1014.1 1014.1 0.0
28/05:30am 8.5 3.6 5.1 79 1.5 N 20 28 11 15 1014.3 1014.3 0.0
28/05:00am 8.6 3.8 5.5 81 1.4 N 20 26 11 14 1014.4 1014.4 0.0
28/04:30am 8.6 4.5 6.2 85 1.1 NNE 17 22 9 12 1014.8 1014.8 0.0
28/04:00am 8.8 4.4 6.4 85 1.1 NNE 19 26 10 14 1015.0 1015.0 0.0
28/03:30am 9.2 4.2 6.6 84 1.2 NNE 22 30 12 16 1015.1 1015.1 0.0
28/03:00am 9.6 5.2 7.3 85 1.1 N 20 26 11 14 1015.7 1015.6 0.0
28/02:30am 9.5 5.2 7.8 89 0.8 N 20 28 11 15 1015.8 1015.7 0.0
28/02:00am 9.5 5.1 7.6 88 0.9 NNE 20 30 11 16 1016.2 1016.1 0.0
28/01:30am 9.9 5.6 8.0 88 0.9 NNE 20 28 11 15 1016.8 1016.7 0.0
28/01:00am 10.3 5.3 8.0 86 1.1 NNE 24 32 13 17 1017.2 1017.1 0.0
28/12:30am 10.4 6.2 8.1 86 1.1 NNE 20 30 11 16 1017.7 1017.6 0.0
28/12:00am 10.4 6.8 8.3 87 1.0 NNE 17 24 9 13 1018.4 1018.3 0.0
 
Date/Time
WST
Temp
°C
App
Temp
°C
Dew
Point
Rel
Hum
%
Delta-T
°C
Wind Press
QNH
hPa
Press
MSL
hPa
Rain
since 9 am
mm
Dir
 
Spd
km/h
Gust
km/h
Spd
kts
Gust
kts
27/11:30pm 10.0 6.7 8.1 88 0.9 NNE 15 22 8 12 1018.8 1018.7 0.0
27/11:00pm 9.3 6.8 8.0 92 0.6 NNE 11 13 6 7 1019.2 1019.1 0.0
27/10:30pm 9.9 7.0 8.0 88 0.9 NNE 13 17 7 9 1019.5 1019.4 0.0
27/10:00pm 10.1 6.8 8.2 88 0.9 NNE 15 17 8 9 1019.6 1019.5 0.0
27/09:30pm 10.3 7.5 8.5 89 0.9 NNE 13 15 7 8 1019.7 1019.6 0.0
27/09:00pm 10.4 7.7 8.8 90 0.8 NNE 13 17 7 9 1020.0 1019.9 0.0
27/08:30pm 10.6 8.7 9.2 91 0.7 NNE 9 13 5 7 1020.4 1020.3 0.0
27/08:00pm 11.1 8.8 9.1 87 1.0 NNE 11 13 6 7 1020.3 1020.2 0.0
27/07:30pm 11.4 9.2 9.4 87 1.0 NNE 11 13 6 7 1020.3 1020.2 0.0
27/07:00pm 11.7 9.9 9.5 86 1.1 NE 9 11 5 6 1020.4 1020.3 0.0
27/06:30pm 12.6 10.9 9.9 83 1.4 ENE 9 11 5 6 1020.4 1020.3 0.0
27/06:00pm 13.6 11.5 9.9 78 1.9 E 11 17 6 9 1020.5 1020.4 0.0
27/05:30pm 14.8 12.9 9.1 68 2.9 E 9 13 5 7 1020.7 1020.6 0.0
27/05:00pm 14.8 13.3 9.1 68 2.9 SE 7 9 4 5 1020.8 1020.7 0.0
27/04:30pm 15.4 13.5 9.2 66 3.2 ESE 9 11 5 6 1020.7 1020.6 0.0
27/04:00pm 15.9 13.5 8.6 62 3.7 ESE 11 15 6 8 1020.7 1020.6 0.0
27/03:30pm 16.4 13.9 8.1 58 4.2 SE 11 15 6 8 1020.9 1020.8 0.0
27/03:00pm 16.7 13.8 8.0 56 4.4 SE 13 17 7 9 1021.2 1021.1 0.0
27/02:30pm 17.6 15.1 8.4 55 4.7 SE 11 15 6 8 1021.4 1021.3 0.0
27/02:00pm 18.1 16.7 7.1 48 5.5 SSW 4 9 2 5 1021.5 1021.4 0.0
27/01:30pm 17.3 15.0 7.5 52 4.9 WSW 9 15 5 8 1021.9 1021.8 0.0
27/01:00pm 17.6 13.6 6.7 48 5.4 NW 17 22 9 12 1022.4 1022.3 0.0
27/12:30pm 18.2 14.6 8.2 52 5.1 NW 17 22 9 12 1022.7 1022.6 0.0
27/12:00pm 17.3 14.7 9.2 59 4.2 WNW 13 20 7 11 1023.1 1023.0 0.0
27/11:30am 17.2 14.9 10.6 65 3.5 NW 13 17 7 9 1023.5 1023.4 0.0
27/11:00am 16.2 13.5 10.5 69 3.0 WNW 15 19 8 10 1023.9 1023.8 0.0
27/10:30am 15.8 12.6 10.1 69 3.0 NW 17 24 9 13 1024.2 1024.1 0.0
27/10:00am 15.1 12.6 10.9 76 2.2 NW 15 20 8 11 1024.1 1024.0 0.0
27/09:30am 14.2 12.1 11.0 81 1.7 WNW 13 19 7 10 1024.3 1024.2 0.0
27/09:00am 13.7 10.9 10.0 78 1.9 NW 15 19 8 10 1024.1 1024.0 0.6
27/08:30am 12.1 8.5 8.4 78 1.8 NW 17 20 9 11 1024.2 1024.1 0.6
27/08:00am 11.5 7.8 8.0 79 1.7 NW 17 22 9 12 1023.9 1023.8 0.6
27/07:30am 10.7 7.7 9.3 91 0.7 WNW 15 19 8 10 1023.4 1023.3 0.6
27/07:00am 10.9 7.5 9.3 90 0.8 NW 17 20 9 11 1023.0 1022.9 0.6
27/06:30am 10.7 8.1 9.3 91 0.7 NW 13 17 7 9 1022.6 1022.5 0.6
27/06:00am 10.8 7.4 9.0 89 0.9 NW 17 22 9 12 1022.2 1022.1 0.6
27/05:30am 10.8 6.9 8.8 87 1.0 WNW 19 26 10 14 1022.4 1022.3 0.6
27/05:00am 10.8 6.9 8.8 87 1.0 NW 19 20 10 11 1022.4 1022.3 0.6
27/04:30am 10.4 7.3 9.0 91 0.7 NW 15 20 8 11 1022.1 1022.0 0.6
27/04:00am 10.7 7.3 9.1 90 0.8 WNW 17 20 9 11 1022.0 1021.9 0.6
27/03:30am 10.6 7.4 8.3 86 1.1 WNW 15 20 8 11 1021.9 1021.8 0.6
27/03:00am 10.9 6.8 8.0 82 1.4 WNW 19 24 10 13 1022.3 1022.2 0.6
27/02:30am 11.2 7.8 9.2 87 1.0 WNW 17 20 9 11 1022.2 1022.1 0.6
27/02:00am 11.5 8.7 9.9 90 0.8 WNW 15 20 8 11 1022.1 1022.0 0.6
27/01:30am 11.4 8.9 9.6 89 0.9 NW 13 19 7 10 1021.8 1021.7 0.6
27/01:00am 11.2 8.3 9.8 91 0.7 NW 15 20 8 11 1021.7 1021.6 0.6
27/12:51am 11.1 7.8 9.7 91 0.7 NW 17 22 9 12 1021.7 1021.6 0.6
27/12:34am 11.1 7.3 8.9 86 1.1 WNW 19 26 10 14 1021.9 1021.8 0.6
27/12:30am 11.4 7.3 8.6 83 1.4 WNW 20 26 11 14 1021.8 1021.7 0.4
27/12:00am 11.2 8.3 8.3 82 1.4 WNW 13 19 7 10 1021.6 1021.5 0.4
 
Date/Time
WST
Temp
°C
App
Temp
°C
Dew
Point
Rel
Hum
%
Delta-T
°C
Wind Press
QNH
hPa
Press
MSL
hPa
Rain
since 9 am
mm
Dir
 
Spd
km/h
Gust
km/h
Spd
kts
Gust
kts
26/11:30pm 12.1 8.2 8.7 80 1.7 WNW 19 24 10 13 1021.4 1021.3 0.4
26/11:00pm 12.4 8.9 8.8 79 1.8 WNW 17 24 9 13 1021.3 1021.2 0.4
26/10:30pm 12.2 9.2 9.4 83 1.4 NW 15 24 8 13 1021.0 1020.9 0.4
26/10:00pm 12.6 10.2 8.6 76 2.0 NW 11 15 6 8 1020.9 1020.8 0.4
26/09:30pm 12.9 11.3 8.7 75 2.1 NW 7 15 4 8 1020.6 1020.5 0.4
26/09:00pm 14.8 12.0 8.7 67 3.1 WSW 13 22 7 12 1020.7 1020.6 0.4
26/08:30pm 14.9 11.6 8.1 64 3.4 WSW 15 20 8 11 1020.7 1020.6 0.4
26/08:00pm 14.1 12.2 9.0 71 2.6 WNW 9 17 5 9 1020.7 1020.6 0.4
26/07:30pm 14.3 11.9 8.5 68 2.9 WSW 11 17 6 9 1020.2 1020.1 0.4
26/07:00pm 14.4 12.1 9.1 70 2.7 WSW 11 17 6 9 1019.7 1019.6 0.4
26/06:30pm 14.7 12.5 7.9 63 3.4 WSW 9 17 5 9 1019.6 1019.5 0.4
26/06:00pm 14.8 11.6 7.0 59 3.8 WSW 13 19 7 10 1019.1 1019.0 0.4
26/05:30pm 15.1 11.5 6.9 58 4.0 WSW 15 24 8 13 1018.8 1018.7 0.4
26/05:00pm 15.1 11.8 8.1 63 3.5 WSW 15 20 8 11 1018.2 1018.1 0.4
26/04:30pm 15.5 11.7 7.4 58 4.0 WSW 17 30 9 16 1017.8 1017.7 0.4
26/04:00pm 15.8 11.5 8.0 60 3.9 WSW 20 33 11 18 1017.6 1017.5 0.4
26/03:30pm 16.0 12.2 9.9 67 3.2 WSW 20 32 11 17 1017.2 1017.1 0.4
26/03:00pm 13.9 10.3 10.7 81 1.7 W 20 30 11 16 1017.0 1016.9 0.4
26/02:59pm 13.8 10.2 10.5 80 1.7 W 20 30 11 16 1017.0 1016.9 0.4
26/02:41pm 14.1 9.3 11.5 84 1.4 SW 28 46 15 25 1016.6 1016.5 0.2
26/02:35pm 16.3 10.8 9.1 62 3.7 WSW 28 46 15 25 1016.4 1016.3 0.0
26/02:30pm 17.9 13.0 8.6 54 4.8 W 24 35 13 19 1015.9 1015.8 0.0
26/02:00pm 17.6 11.5 8.4 55 4.7 W 30 46 16 25 1015.9 1015.8 0.0
26/01:30pm 17.5 12.1 8.1 54 4.8 W 26 43 14 23 1015.6 1015.5 0.0
26/01:00pm 17.5 12.2 8.6 56 4.6 WSW 26 44 14 24 1014.8 1014.8 0.0
26/12:39pm 17.1 11.5 8.8 58 4.3 W 28 46 15 25 1014.6 1014.6 0.0
26/12:30pm 17.1 12.4 9.2 59 4.1 W 24 39 13 21 1014.8 1014.8 0.0
26/12:17pm 16.6 11.0 8.6 59 4.1 W 28 46 15 25 1014.4 1014.4 0.0
26/12:00pm 16.9 10.9 8.7 58 4.2 W 30 46 16 25 1014.4 1014.4 0.0
26/11:30am 16.8 11.3 9.1 60 4.0 W 28 46 15 25 1014.2 1014.2 0.0
26/11:21am 16.4 10.9 9.0 61 3.8 W 28 46 15 25 1014.2 1014.2 0.0
26/11:00am 16.5 11.8 9.4 63 3.7 W 24 43 13 23 1014.4 1014.4 0.0
26/10:50am 16.6 11.1 9.3 62 3.8 W 28 50 15 27 1014.2 1014.2 0.0
26/10:30am 16.8 11.8 9.5 62 3.8 W 26 43 14 23 1014.3 1014.3 0.0
26/10:00am 16.2 11.4 9.0 62 3.7 WNW 24 39 13 21 1014.0 1014.0 0.0
26/09:30am 15.6 11.3 9.4 66 3.2 WNW 22 33 12 18 1014.0 1014.0 0.0
26/09:00am 14.8 10.5 9.4 70 2.8 WNW 22 35 12 19 1013.8 1013.8 0.0
26/08:30am 13.2 9.2 9.0 75 2.1 WNW 20 30 11 16 1013.5 1013.5 0.0
26/08:00am 12.6 8.6 9.0 79 1.8 NW 20 32 11 17 1013.0 1013.0 0.0
26/07:30am 12.2 8.3 8.8 80 1.7 NW 19 26 10 14 1012.5 1012.5 0.0
26/07:00am 11.4 6.9 8.4 82 1.5 NW 22 30 12 16 1012.2 1012.2 0.0
26/06:30am 11.5 6.5 8.2 80 1.6 NW 24 33 13 18 1011.8 1011.8 0.0
26/06:00am 11.4 7.8 8.4 82 1.5 NW 17 28 9 15 1011.9 1011.9 0.0
26/05:30am 11.5 7.3 8.2 80 1.6 NW 20 28 11 15 1011.7 1011.7 0.0
26/05:00am 11.2 8.0 8.4 83 1.4 NW 15 19 8 10 1011.4 1011.4 0.0
26/04:30am 11.4 8.2 8.4 82 1.5 NW 15 22 8 12 1011.0 1011.0 0.0
26/04:00am 11.5 7.5 8.2 80 1.6 NW 19 26 10 14 1011.0 1011.0 0.0
26/03:30am 11.6 7.6 8.4 81 1.6 NW 19 26 10 14 1010.9 1010.9 0.0
26/03:00am 11.5 7.5 8.2 80 1.6 NW 19 26 10 14 1010.6 1010.6 0.0
26/02:30am 11.5 7.8 8.0 79 1.7 NW 17 22 9 12 1010.6 1010.6 0.0
26/02:00am 11.7 7.6 8.0 78 1.8 NW 19 26 10 14 1010.8 1010.8 0.0
26/01:30am 11.9 7.8 7.8 76 2.0 NW 19 24 10 13 1011.0 1011.0 0.0
26/01:00am 11.9 7.5 7.4 74 2.2 NW 20 24 11 13 1011.0 1011.0 0.0
26/12:30am 12.2 8.3 7.2 71 2.4 NW 17 22 9 12 1011.0 1011.0 0.0
26/12:00am 12.5 9.0 7.1 69 2.6 NW 15 22 8 12 1011.0 1011.0 0.0
 
Date/Time
WST
Temp
°C
App
Temp
°C
Dew
Point
Rel
Hum
%
Delta-T
°C
Wind Press
QNH
hPa
Press
MSL
hPa
Rain
since 9 am
mm
Dir
 
Spd
km/h
Gust
km/h
Spd
kts
Gust
kts
25/11:30pm 12.8 9.7 7.2 69 2.7 NW 13 20 7 11 1011.3 1011.3 0.0
25/11:00pm 13.1 9.6 7.4 68 2.8 NW 15 20 8 11 1011.3 1011.3 0.0
25/10:30pm 13.1 10.5 7.8 70 2.6 NW 11 17 6 9 1011.5 1011.5 0.0
25/10:00pm 13.1 9.7 7.8 70 2.6 NW 15 19 8 10 1011.7 1011.7 0.0
25/09:30pm 13.4 10.1 7.9 69 2.7 NNW 15 20 8 11 1011.7 1011.7 0.0
25/09:00pm 13.9 11.4 8.1 68 2.9 NNW 11 15 6 8 1011.7 1011.7 0.0
25/08:30pm 14.2 12.1 8.4 68 2.9 NNW 9 13 5 7 1011.8 1011.8 0.0
25/08:00pm 14.0 12.1 8.9 71 2.6 NNW 9 13 5 7 1011.7 1011.7 0.0
25/07:30pm 14.1 12.2 9.2 72 2.5 N 9 13 5 7 1011.8 1011.8 0.0
25/07:00pm 14.4 12.5 8.9 69 2.8 NNW 9 13 5 7 1011.8 1011.8 0.0
25/06:30pm 14.2 12.7 9.3 72 2.5 NNW 7 9 4 5 1011.8 1011.8 0.0
25/06:00pm 14.4 12.9 9.1 70 2.7 NNW 7 9 4 5 1011.5 1011.5 0.0
25/05:30pm 14.3 12.8 9.2 71 2.6 NW 7 9 4 5 1011.1 1011.1 0.0
25/05:00pm 14.5 12.9 8.8 68 2.9 WNW 7 9 4 5 1010.8 1010.8 0.0
25/04:30pm 14.9 13.3 8.8 67 3.1 W 7 9 4 5 1010.6 1010.6 0.0
25/04:00pm 16.0 13.5 8.1 59 4.0 WSW 11 17 6 9 1010.4 1010.4 0.0
25/03:30pm 16.4 13.8 7.6 56 4.4 WSW 11 15 6 8 1010.1 1010.1 0.0
25/03:00pm 16.4 13.8 7.9 57 4.3 WSW 11 19 6 10 1010.0 1010.0 0.0
25/02:30pm 17.0 13.5 7.2 52 4.9 WSW 15 26 8 14 1009.9 1009.9 0.0
25/02:00pm 16.7 13.6 7.3 54 4.7 WSW 13 20 7 11 1009.6 1009.6 0.0
25/01:30pm 16.1 12.4 6.5 53 4.7 W 15 20 8 11 1009.6 1009.6 0.0
25/01:00pm 16.8 13.2 6.9 52 4.9 WSW 15 22 8 12 1009.6 1009.6 0.0
25/12:30pm 17.7 13.1 6.4 47 5.6 WNW 20 30 11 16 1009.7 1009.7 0.0
25/12:00pm 17.2 13.4 5.9 47 5.5 W 15 26 8 14 1009.9 1009.9 0.0
25/11:30am 17.0 13.1 7.0 51 5.0 W 17 24 9 13 1010.3 1010.3 0.0
25/11:00am 17.0 12.9 6.4 49 5.2 WNW 17 24 9 13 1010.5 1010.5 0.0
25/10:30am 16.5 12.0 6.8 52 4.8 WNW 20 30 11 16 1010.6 1010.6 0.0
25/10:00am 15.7 11.2 7.0 56 4.3 WNW 20 30 11 16 1010.7 1010.7 0.0
25/09:30am 15.3 11.7 8.2 62 3.6 WNW 17 24 9 13 1010.8 1010.8 0.0
25/09:00am 14.1 10.4 8.1 67 3.0 WNW 17 22 9 12 1010.7 1010.7 0.4
25/08:30am 13.4 10.4 7.5 67 2.9 WNW 13 19 7 10 1010.6 1010.6 0.4
25/08:00am 12.4 9.2 7.0 69 2.6 WNW 13 19 7 10 1010.3 1010.3 0.4
25/07:30am 11.4 8.7 7.2 75 2.0 NW 11 17 6 9 1010.2 1010.2 0.4
25/07:00am 11.2 8.2 7.5 78 1.8 NW 13 17 7 9 1010.0 1010.0 0.4
25/06:30am 11.6 8.6 7.9 78 1.8 NW 13 19 7 10 1009.7 1009.7 0.4

Other Formats:

Comma delimited format used in spreadsheet applications
http://www.bom.gov.au/fwo/IDW60801/IDW60801.94638.axf

JavaScript Object Notation format (JSON) in row-major order
http://www.bom.gov.au/fwo/IDW60801/IDW60801.94638.json